Terminal Aerodrome Forecast
Issued by NWS Blacksburg, VA

Current Version | Previous Version | Text Only | Print | Product List | Glossary On
Versions: 1 2 3 4 5 6 7 8 9 10 11 12 13 14 15 16 17 18 19 20 21 22 23 24 25 26 27 28 29 30 31 32 33 34 35 36 37 38 39
000
FTUS41 KRNK 301721
TAFBLF
TAF
KBLF 301721Z 3018/0118 26007KT P6SM BKN035
     FM302000 26009KT P6SM VCTS BKN040CB
      TEMPO 3021/3023 3SM TSRA OVC025CB
     FM010000 26007KT P6SM BKN040
     FM010900 27008KT P6SM OVC012
     FM011200 25007KT P6SM SCT013 OVC050=

USA.gov is the U.S. government's official web portal to all federal, state and local government web resources and services.